sensor_id;sensor_type;location;lat;lon;timestamp;P1;durP1;ratioP1;P2;durP2;ratioP2
3074;SDS011;1548;51.716;8.748;2022-11-11T00:01:04;418.40;;;172.60;;
3074;SDS011;1548;51.716;8.748;2022-11-11T00:03:41;393.80;;;155.47;;
3074;SDS011;1548;51.716;8.748;2022-11-11T00:06:11;420.83;;;169.67;;
3074;SDS011;1548;51.716;8.748;2022-11-11T00:08:38;427.40;;;167.20;;
3074;SDS011;1548;51.716;8.748;2022-11-11T00:11:05;404.83;;;159.33;;
3074;SDS011;1548;51.716;8.748;2022-11-11T00:13:35;371.33;;;144.00;;
3074;SDS011;1548;51.716;8.748;2022-11-11T00:16:05;422.10;;;167.57;;
3074;SDS011;1548;51.716;8.748;2022-11-11T00:18:42;424.60;;;169.60;;
3074;SDS011;1548;51.716;8.748;2022-11-11T00:21:27;405.80;;;160.33;;
3074;SDS011;1548;51.716;8.748;2022-11-11T00:24:12;418.57;;;167.60;;
3074;SDS011;1548;51.716;8.748;2022-11-11T00:27:09;434.47;;;171.97;;
3074;SDS011;1548;51.716;8.748;2022-11-11T00:29:35;373.93;;;145.73;;
3074;SDS011;1548;51.716;8.748;2022-11-11T00:32:02;381.33;;;150.30;;
3074;SDS011;1548;51.716;8.748;2022-11-11T00:34:47;368.40;;;145.07;;
3074;SDS011;1548;51.716;8.748;2022-11-11T00:37:32;382.50;;;153.50;;
3074;SDS011;1548;51.716;8.748;2022-11-11T00:39:58;385.53;;;149.13;;
3074;SDS011;1548;51.716;8.748;2022-11-11T00:42:23;385.10;;;147.83;;
3074;SDS011;1548;51.716;8.748;2022-11-11T00:44:49;375.23;;;147.37;;
3074;SDS011;1548;51.716;8.748;2022-11-11T00:47:15;388.23;;;155.97;;
3074;SDS011;1548;51.716;8.748;2022-11-11T00:49:59;376.80;;;148.53;;
3074;SDS011;1548;51.716;8.748;2022-11-11T00:52:44;358.67;;;138.37;;
3074;SDS011;1548;51.716;8.748;2022-11-11T00:55:10;384.93;;;157.03;;
3074;SDS011;1548;51.716;8.748;2022-11-11T00:57:36;360.80;;;146.13;;
3074;SDS011;1548;51.716;8.748;2022-11-11T01:00:02;367.07;;;144.77;;
3074;SDS011;1548;51.716;8.748;2022-11-11T01:02:28;362.57;;;140.30;;
3074;SDS011;1548;51.716;8.748;2022-11-11T01:04:54;412.43;;;158.30;;
3074;SDS011;1548;51.716;8.748;2022-11-11T01:07:20;442.00;;;169.13;;
3074;SDS011;1548;51.716;8.748;2022-11-11T01:09:45;452.53;;;169.40;;
3074;SDS011;1548;51.716;8.748;2022-11-11T01:12:11;441.80;;;170.83;;
3074;SDS011;1548;51.716;8.748;2022-11-11T01:14:36;444.87;;;172.23;;
3074;SDS011;1548;51.716;8.748;2022-11-11T01:17:02;380.70;;;154.50;;
3074;SDS011;1548;51.716;8.748;2022-11-11T01:19:30;430.80;;;167.33;;
3074;SDS011;1548;51.716;8.748;2022-11-11T01:21:56;437.90;;;169.30;;
3074;SDS011;1548;51.716;8.748;2022-11-11T01:24:21;410.67;;;164.50;;
3074;SDS011;1548;51.716;8.748;2022-11-11T01:26:47;372.07;;;147.37;;
3074;SDS011;1548;51.716;8.748;2022-11-11T01:29:13;441.70;;;168.57;;
3074;SDS011;1548;51.716;8.748;2022-11-11T01:31:38;450.27;;;167.80;;
3074;SDS011;1548;51.716;8.748;2022-11-11T01:34:04;456.13;;;168.50;;
3074;SDS011;1548;51.716;8.748;2022-11-11T01:36:30;451.90;;;166.90;;
3074;SDS011;1548;51.716;8.748;2022-11-11T01:38:57;452.40;;;168.00;;
3074;SDS011;1548;51.716;8.748;2022-11-11T01:41:25;426.90;;;166.27;;
3074;SDS011;1548;51.716;8.748;2022-11-11T01:44:00;444.97;;;168.63;;
3074;SDS011;1548;51.716;8.748;2022-11-11T01:46:36;444.70;;;169.93;;
3074;SDS011;1548;51.716;8.748;2022-11-11T01:52:16;435.13;;;173.03;;
3074;SDS011;1548;51.716;8.748;2022-11-11T01:54:46;412.27;;;169.97;;
3074;SDS011;1548;51.716;8.748;2022-11-11T01:57:19;365.67;;;146.17;;
3074;SDS011;1548;51.716;8.748;2022-11-11T01:59:49;420.83;;;167.20;;
3074;SDS011;1548;51.716;8.748;2022-11-11T02:02:30;409.37;;;172.17;;
3074;SDS011;1548;51.716;8.748;2022-11-11T02:05:05;418.93;;;173.67;;
3074;SDS011;1548;51.716;8.748;2022-11-11T02:07:52;381.77;;;158.73;;
3074;SDS011;1548;51.716;8.748;2022-11-11T02:10:21;353.80;;;145.23;;
3074;SDS011;1548;51.716;8.748;2022-11-11T02:12:49;353.43;;;145.47;;
3074;SDS011;1548;51.716;8.748;2022-11-11T02:15:33;368.60;;;146.40;;
3074;SDS011;1548;51.716;8.748;2022-11-11T02:18:00;377.33;;;146.83;;
3074;SDS011;1548;51.716;8.748;2022-11-11T02:20:26;379.03;;;147.77;;
3074;SDS011;1548;51.716;8.748;2022-11-11T02:23:02;379.27;;;143.27;;
3074;SDS011;1548;51.716;8.748;2022-11-11T02:25:35;372.20;;;138.63;;
3074;SDS011;1548;51.716;8.748;2022-11-11T02:28:03;391.03;;;147.53;;
3074;SDS011;1548;51.716;8.748;2022-11-11T02:30:31;388.27;;;144.23;;
3074;SDS011;1548;51.716;8.748;2022-11-11T02:32:57;445.57;;;170.20;;
3074;SDS011;1548;51.716;8.748;2022-11-11T02:35:35;450.20;;;170.93;;
3074;SDS011;1548;51.716;8.748;2022-11-11T02:38:05;430.00;;;164.87;;
3074;SDS011;1548;51.716;8.748;2022-11-11T02:40:41;423.63;;;163.70;;
3074;SDS011;1548;51.716;8.748;2022-11-11T02:43:29;443.10;;;171.30;;
3074;SDS011;1548;51.716;8.748;2022-11-11T02:45:55;417.57;;;163.93;;
3074;SDS011;1548;51.716;8.748;2022-11-11T02:48:21;437.90;;;170.73;;
3074;SDS011;1548;51.716;8.748;2022-11-11T02:50:48;444.30;;;172.87;;
3074;SDS011;1548;51.716;8.748;2022-11-11T02:53:14;451.83;;;173.60;;
3074;SDS011;1548;51.716;8.748;2022-11-11T02:55:39;412.13;;;162.80;;
3074;SDS011;1548;51.716;8.748;2022-11-11T02:58:05;413.67;;;165.67;;
3074;SDS011;1548;51.716;8.748;2022-11-11T03:00:30;383.50;;;163.87;;
3074;SDS011;1548;51.716;8.748;2022-11-11T03:02:56;375.70;;;162.73;;
3074;SDS011;1548;51.716;8.748;2022-11-11T03:05:22;447.40;;;170.50;;
3074;SDS011;1548;51.716;8.748;2022-11-11T03:07:47;445.47;;;167.57;;
3074;SDS011;1548;51.716;8.748;2022-11-11T03:10:13;445.83;;;166.73;;
3074;SDS011;1548;51.716;8.748;2022-11-11T03:12:39;429.77;;;179.73;;
3074;SDS011;1548;51.716;8.748;2022-11-11T03:15:04;453.83;;;172.33;;
3074;SDS011;1548;51.716;8.748;2022-11-11T03:17:30;456.50;;;173.63;;
3074;SDS011;1548;51.716;8.748;2022-11-11T03:20:06;448.20;;;167.27;;
3074;SDS011;1548;51.716;8.748;2022-11-11T03:25:29;453.80;;;171.63;;
3074;SDS011;1548;51.716;8.748;2022-11-11T03:28:05;459.13;;;162.10;;
3074;SDS011;1548;51.716;8.748;2022-11-11T03:30:35;458.10;;;166.30;;
3074;SDS011;1548;51.716;8.748;2022-11-11T03:33:02;451.67;;;167.30;;
3074;SDS011;1548;51.716;8.748;2022-11-11T03:35:28;458.60;;;169.70;;
3074;SDS011;1548;51.716;8.748;2022-11-11T03:37:54;462.37;;;160.23;;
3074;SDS011;1548;51.716;8.748;2022-11-11T03:40:38;464.07;;;164.40;;
3074;SDS011;1548;51.716;8.748;2022-11-11T03:43:04;469.30;;;164.03;;
3074;SDS011;1548;51.716;8.748;2022-11-11T03:45:30;471.07;;;165.60;;
3074;SDS011;1548;51.716;8.748;2022-11-11T03:47:55;467.87;;;153.93;;
3074;SDS011;1548;51.716;8.748;2022-11-11T03:50:21;406.43;;;142.00;;
3074;SDS011;1548;51.716;8.748;2022-11-11T03:52:47;464.57;;;159.13;;
3074;SDS011;1548;51.716;8.748;2022-11-11T03:55:13;464.27;;;162.67;;
3074;SDS011;1548;51.716;8.748;2022-11-11T03:57:40;455.30;;;165.60;;
3074;SDS011;1548;51.716;8.748;2022-11-11T04:00:07;441.97;;;168.97;;
3074;SDS011;1548;51.716;8.748;2022-11-11T04:02:33;451.40;;;171.17;;
3074;SDS011;1548;51.716;8.748;2022-11-11T04:05:17;437.53;;;170.10;;
3074;SDS011;1548;51.716;8.748;2022-11-11T04:08:01;431.97;;;165.50;;
3074;SDS011;1548;51.716;8.748;2022-11-11T04:10:45;433.67;;;171.17;;
3074;SDS011;1548;51.716;8.748;2022-11-11T04:13:11;430.97;;;171.97;;
3074;SDS011;1548;51.716;8.748;2022-11-11T04:15:56;437.43;;;165.77;;
3074;SDS011;1548;51.716;8.748;2022-11-11T04:18:30;444.73;;;164.07;;
3074;SDS011;1548;51.716;8.748;2022-11-11T04:21:14;433.93;;;162.47;;
3074;SDS011;1548;51.716;8.748;2022-11-11T04:23:59;447.87;;;171.63;;
3074;SDS011;1548;51.716;8.748;2022-11-11T04:26:24;456.03;;;165.00;;
3074;SDS011;1548;51.716;8.748;2022-11-11T04:28:50;466.20;;;163.73;;
3074;SDS011;1548;51.716;8.748;2022-11-11T04:31:34;451.80;;;165.30;;
3074;SDS011;1548;51.716;8.748;2022-11-11T04:34:00;453.77;;;164.60;;
3074;SDS011;1548;51.716;8.748;2022-11-11T04:36:25;463.23;;;164.93;;
3074;SDS011;1548;51.716;8.748;2022-11-11T04:38:51;466.80;;;159.17;;
3074;SDS011;1548;51.716;8.748;2022-11-11T04:41:35;453.43;;;163.93;;
3074;SDS011;1548;51.716;8.748;2022-11-11T04:44:01;455.37;;;169.93;;
3074;SDS011;1548;51.716;8.748;2022-11-11T04:46:45;448.87;;;166.67;;
3074;SDS011;1548;51.716;8.748;2022-11-11T04:49:11;448.23;;;167.07;;
3074;SDS011;1548;51.716;8.748;2022-11-11T04:51:36;393.10;;;141.93;;
3074;SDS011;1548;51.716;8.748;2022-11-11T04:54:20;392.37;;;142.37;;
3074;SDS011;1548;51.716;8.748;2022-11-11T04:56:46;384.10;;;150.77;;
3074;SDS011;1548;51.716;8.748;2022-11-11T04:59:11;376.70;;;148.53;;
3074;SDS011;1548;51.716;8.748;2022-11-11T05:01:40;385.47;;;145.80;;
3074;SDS011;1548;51.716;8.748;2022-11-11T05:04:25;386.90;;;148.70;;
3074;SDS011;1548;51.716;8.748;2022-11-11T05:06:50;385.40;;;145.00;;
3074;SDS011;1548;51.716;8.748;2022-11-11T05:09:34;383.03;;;146.70;;
3074;SDS011;1548;51.716;8.748;2022-11-11T05:12:00;366.03;;;146.53;;
3074;SDS011;1548;51.716;8.748;2022-11-11T05:14:26;369.13;;;149.63;;
3074;SDS011;1548;51.716;8.748;2022-11-11T05:17:10;363.43;;;143.53;;
3074;SDS011;1548;51.716;8.748;2022-11-11T05:19:54;367.30;;;144.43;;
3074;SDS011;1548;51.716;8.748;2022-11-11T05:22:39;375.13;;;144.47;;
3074;SDS011;1548;51.716;8.748;2022-11-11T05:25:05;382.90;;;148.10;;
3074;SDS011;1548;51.716;8.748;2022-11-11T05:27:51;389.73;;;149.47;;
3074;SDS011;1548;51.716;8.748;2022-11-11T05:30:17;447.53;;;169.70;;
3074;SDS011;1548;51.716;8.748;2022-11-11T05:32:44;393.37;;;150.57;;
3074;SDS011;1548;51.716;8.748;2022-11-11T05:35:10;447.80;;;168.50;;
3074;SDS011;1548;51.716;8.748;2022-11-11T05:37:36;377.10;;;144.47;;
3074;SDS011;1548;51.716;8.748;2022-11-11T05:40:02;386.60;;;145.07;;
3074;SDS011;1548;51.716;8.748;2022-11-11T05:42:28;379.80;;;144.40;;
3074;SDS011;1548;51.716;8.748;2022-11-11T05:44:53;377.13;;;152.73;;
3074;SDS011;1548;51.716;8.748;2022-11-11T05:47:19;374.80;;;147.27;;
3074;SDS011;1548;51.716;8.748;2022-11-11T05:49:45;366.67;;;149.20;;
3074;SDS011;1548;51.716;8.748;2022-11-11T05:52:11;362.97;;;143.20;;
3074;SDS011;1548;51.716;8.748;2022-11-11T05:54:38;366.67;;;147.80;;
3074;SDS011;1548;51.716;8.748;2022-11-11T05:57:04;425.50;;;171.70;;
3074;SDS011;1548;51.716;8.748;2022-11-11T05:59:30;436.20;;;172.93;;
3074;SDS011;1548;51.716;8.748;2022-11-11T06:01:55;367.20;;;143.40;;
3074;SDS011;1548;51.716;8.748;2022-11-11T06:04:21;452.00;;;169.57;;
3074;SDS011;1548;51.716;8.748;2022-11-11T06:06:47;385.93;;;143.03;;
3074;SDS011;1548;51.716;8.748;2022-11-11T06:09:12;391.43;;;147.00;;
3074;SDS011;1548;51.716;8.748;2022-11-11T06:11:38;383.90;;;147.07;;
3074;SDS011;1548;51.716;8.748;2022-11-11T06:14:04;390.10;;;148.97;;
3074;SDS011;1548;51.716;8.748;2022-11-11T06:16:29;369.20;;;143.57;;
3074;SDS011;1548;51.716;8.748;2022-11-11T06:18:55;448.83;;;171.03;;
3074;SDS011;1548;51.716;8.748;2022-11-11T06:21:21;447.33;;;172.53;;
3074;SDS011;1548;51.716;8.748;2022-11-11T06:23:46;442.20;;;167.33;;
3074;SDS011;1548;51.716;8.748;2022-11-11T06:26:12;421.13;;;170.90;;
3074;SDS011;1548;51.716;8.748;2022-11-11T06:28:39;392.50;;;151.83;;
3074;SDS011;1548;51.716;8.748;2022-11-11T06:31:06;383.10;;;152.03;;
3074;SDS011;1548;51.716;8.748;2022-11-11T06:33:34;383.23;;;152.07;;
3074;SDS011;1548;51.716;8.748;2022-11-11T06:36:00;384.07;;;153.97;;
3074;SDS011;1548;51.716;8.748;2022-11-11T06:38:27;374.30;;;147.23;;
3074;SDS011;1548;51.716;8.748;2022-11-11T06:40:52;385.37;;;149.90;;
3074;SDS011;1548;51.716;8.748;2022-11-11T06:43:18;390.53;;;150.90;;
3074;SDS011;1548;51.716;8.748;2022-11-11T06:45:44;373.93;;;142.37;;
3074;SDS011;1548;51.716;8.748;2022-11-11T06:48:10;398.57;;;151.73;;
3074;SDS011;1548;51.716;8.748;2022-11-11T06:50:36;374.60;;;141.40;;
3074;SDS011;1548;51.716;8.748;2022-11-11T06:53:05;451.07;;;176.93;;
3074;SDS011;1548;51.716;8.748;2022-11-11T06:55:32;439.90;;;168.57;;
3074;SDS011;1548;51.716;8.748;2022-11-11T06:58:05;368.97;;;145.30;;
3074;SDS011;1548;51.716;8.748;2022-11-11T07:00:41;364.83;;;146.93;;
3074;SDS011;1548;51.716;8.748;2022-11-11T07:03:08;363.53;;;144.50;;
3074;SDS011;1548;51.716;8.748;2022-11-11T07:05:36;373.13;;;147.93;;
3074;SDS011;1548;51.716;8.748;2022-11-11T07:08:06;368.60;;;147.50;;
3074;SDS011;1548;51.716;8.748;2022-11-11T07:10:34;363.30;;;150.43;;
3074;SDS011;1548;51.716;8.748;2022-11-11T07:13:02;370.57;;;147.10;;
3074;SDS011;1548;51.716;8.748;2022-11-11T07:15:28;436.10;;;173.37;;
3074;SDS011;1548;51.716;8.748;2022-11-11T07:17:54;379.77;;;152.20;;
3074;SDS011;1548;51.716;8.748;2022-11-11T07:20:20;378.73;;;151.27;;
3074;SDS011;1548;51.716;8.748;2022-11-11T07:22:46;365.67;;;138.73;;
3074;SDS011;1548;51.716;8.748;2022-11-11T07:25:12;440.23;;;165.90;;
3074;SDS011;1548;51.716;8.748;2022-11-11T07:27:38;436.30;;;171.37;;
3074;SDS011;1548;51.716;8.748;2022-11-11T07:30:04;447.77;;;179.57;;
3074;SDS011;1548;51.716;8.748;2022-11-11T07:32:31;365.73;;;143.47;;
3074;SDS011;1548;51.716;8.748;2022-11-11T07:34:57;418.33;;;168.67;;
3074;SDS011;1548;51.716;8.748;2022-11-11T07:37:23;371.03;;;144.03;;
3074;SDS011;1548;51.716;8.748;2022-11-11T07:39:49;372.33;;;150.50;;
3074;SDS011;1548;51.716;8.748;2022-11-11T07:42:14;366.07;;;145.83;;
3074;SDS011;1548;51.716;8.748;2022-11-11T07:44:40;356.00;;;143.90;;
3074;SDS011;1548;51.716;8.748;2022-11-11T07:47:06;358.70;;;140.67;;
3074;SDS011;1548;51.716;8.748;2022-11-11T07:49:32;356.10;;;140.27;;
3074;SDS011;1548;51.716;8.748;2022-11-11T07:51:58;349.37;;;143.10;;
3074;SDS011;1548;51.716;8.748;2022-11-11T07:54:24;365.70;;;148.77;;
3074;SDS011;1548;51.716;8.748;2022-11-11T07:56:49;366.37;;;150.53;;
3074;SDS011;1548;51.716;8.748;2022-11-11T07:59:15;347.73;;;141.17;;
3074;SDS011;1548;51.716;8.748;2022-11-11T08:01:41;417.23;;;170.20;;
3074;SDS011;1548;51.716;8.748;2022-11-11T08:04:06;378.10;;;153.73;;
3074;SDS011;1548;51.716;8.748;2022-11-11T08:06:32;374.97;;;149.63;;
3074;SDS011;1548;51.716;8.748;2022-11-11T08:08:58;344.40;;;141.60;;
3074;SDS011;1548;51.716;8.748;2022-11-11T08:11:23;343.83;;;142.63;;
3074;SDS011;1548;51.716;8.748;2022-11-11T08:14:07;417.07;;;171.57;;
3074;SDS011;1548;51.716;8.748;2022-11-11T08:16:33;439.57;;;162.90;;
3074;SDS011;1548;51.716;8.748;2022-11-11T08:18:59;435.03;;;169.20;;
3074;SDS011;1548;51.716;8.748;2022-11-11T08:21:25;422.43;;;168.97;;
3074;SDS011;1548;51.716;8.748;2022-11-11T08:23:51;414.67;;;172.37;;
3074;SDS011;1548;51.716;8.748;2022-11-11T08:26:18;424.50;;;173.13;;
3074;SDS011;1548;51.716;8.748;2022-11-11T08:28:44;410.30;;;175.80;;
3074;SDS011;1548;51.716;8.748;2022-11-11T08:31:10;395.57;;;159.93;;
3074;SDS011;1548;51.716;8.748;2022-11-11T08:33:35;399.33;;;165.00;;
3074;SDS011;1548;51.716;8.748;2022-11-11T08:36:01;347.53;;;145.87;;
3074;SDS011;1548;51.716;8.748;2022-11-11T08:38:28;348.27;;;147.97;;
3074;SDS011;1548;51.716;8.748;2022-11-11T08:40:54;398.90;;;172.17;;
3074;SDS011;1548;51.716;8.748;2022-11-11T08:43:23;397.10;;;165.50;;
3074;SDS011;1548;51.716;8.748;2022-11-11T08:45:53;411.67;;;165.70;;
3074;SDS011;1548;51.716;8.748;2022-11-11T08:48:18;411.07;;;163.83;;
3074;SDS011;1548;51.716;8.748;2022-11-11T08:50:44;405.73;;;163.67;;
3074;SDS011;1548;51.716;8.748;2022-11-11T08:53:10;387.17;;;160.97;;
3074;SDS011;1548;51.716;8.748;2022-11-11T08:55:36;399.33;;;166.73;;
3074;SDS011;1548;51.716;8.748;2022-11-11T08:58:03;402.27;;;163.13;;
3074;SDS011;1548;51.716;8.748;2022-11-11T09:00:30;387.07;;;161.77;;
3074;SDS011;1548;51.716;8.748;2022-11-11T09:02:59;384.17;;;163.63;;
3074;SDS011;1548;51.716;8.748;2022-11-11T09:05:26;385.07;;;163.87;;
3074;SDS011;1548;51.716;8.748;2022-11-11T09:07:52;327.60;;;142.23;;
3074;SDS011;1548;51.716;8.748;2022-11-11T09:10:17;380.13;;;164.40;;
3074;SDS011;1548;51.716;8.748;2022-11-11T09:12:43;291.17;;;132.27;;
3074;SDS011;1548;51.716;8.748;2022-11-11T09:15:08;363.03;;;162.20;;
3074;SDS011;1548;51.716;8.748;2022-11-11T09:17:34;306.90;;;138.20;;
3074;SDS011;1548;51.716;8.748;2022-11-11T09:20:00;348.60;;;164.00;;
3074;SDS011;1548;51.716;8.748;2022-11-11T09:22:26;335.27;;;159.83;;
3074;SDS011;1548;51.716;8.748;2022-11-11T09:24:51;332.27;;;164.90;;
3074;SDS011;1548;51.716;8.748;2022-11-11T09:27:17;356.00;;;161.47;;
3074;SDS011;1548;51.716;8.748;2022-11-11T09:29:42;363.63;;;159.40;;
3074;SDS011;1548;51.716;8.748;2022-11-11T09:32:08;349.57;;;160.67;;
3074;SDS011;1548;51.716;8.748;2022-11-11T09:34:34;360.73;;;162.60;;
3074;SDS011;1548;51.716;8.748;2022-11-11T09:36:59;373.10;;;162.70;;
3074;SDS011;1548;51.716;8.748;2022-11-11T09:39:25;392.20;;;162.37;;
3074;SDS011;1548;51.716;8.748;2022-11-11T09:42:10;385.80;;;167.53;;
3074;SDS011;1548;51.716;8.748;2022-11-11T09:48:25;346.33;;;165.27;;
3074;SDS011;1548;51.716;8.748;2022-11-11T09:51:20;373.93;;;166.70;;
3074;SDS011;1548;51.716;8.748;2022-11-11T09:53:52;376.43;;;160.70;;
3074;SDS011;1548;51.716;8.748;2022-11-11T09:56:24;374.50;;;161.33;;
3074;SDS011;1548;51.716;8.748;2022-11-11T09:58:52;387.53;;;166.67;;
3074;SDS011;1548;51.716;8.748;2022-11-11T10:01:33;385.00;;;166.80;;
3074;SDS011;1548;51.716;8.748;2022-11-11T10:04:26;373.33;;;166.00;;
3074;SDS011;1548;51.716;8.748;2022-11-11T10:07:13;376.83;;;163.77;;
3074;SDS011;1548;51.716;8.748;2022-11-11T10:09:52;381.07;;;166.10;;
3074;SDS011;1548;51.716;8.748;2022-11-11T10:12:23;385.77;;;160.30;;
3074;SDS011;1548;51.716;8.748;2022-11-11T10:14:55;370.17;;;163.63;;
3074;SDS011;1548;51.716;8.748;2022-11-11T10:22:30;364.13;;;161.60;;
3074;SDS011;1548;51.716;8.748;2022-11-11T10:25:07;342.77;;;162.83;;
3074;SDS011;1548;51.716;8.748;2022-11-11T10:27:36;349.80;;;162.67;;
3074;SDS011;1548;51.716;8.748;2022-11-11T10:30:18;358.80;;;160.47;;
3074;SDS011;1548;51.716;8.748;2022-11-11T10:32:46;358.17;;;165.37;;
3074;SDS011;1548;51.716;8.748;2022-11-11T10:35:23;351.03;;;159.20;;
3074;SDS011;1548;51.716;8.748;2022-11-11T10:37:53;356.80;;;162.93;;
3074;SDS011;1548;51.716;8.748;2022-11-11T10:40:41;368.97;;;163.60;;
3074;SDS011;1548;51.716;8.748;2022-11-11T10:43:23;365.27;;;163.23;;
3074;SDS011;1548;51.716;8.748;2022-11-11T10:46:00;293.90;;;133.77;;
3074;SDS011;1548;51.716;8.748;2022-11-11T10:48:40;350.10;;;165.57;;
3074;SDS011;1548;51.716;8.748;2022-11-11T10:51:10;355.60;;;162.70;;
3074;SDS011;1548;51.716;8.748;2022-11-11T10:53:58;287.73;;;136.43;;
3074;SDS011;1548;51.716;8.748;2022-11-11T10:57:05;348.50;;;159.83;;
3074;SDS011;1548;51.716;8.748;2022-11-11T10:59:31;361.67;;;163.67;;
3074;SDS011;1548;51.716;8.748;2022-11-11T11:02:04;361.33;;;167.50;;
3074;SDS011;1548;51.716;8.748;2022-11-11T11:04:52;313.03;;;137.47;;
3074;SDS011;1548;51.716;8.748;2022-11-11T11:07:24;349.93;;;161.87;;
3074;SDS011;1548;51.716;8.748;2022-11-11T11:10:06;359.63;;;161.27;;
3074;SDS011;1548;51.716;8.748;2022-11-11T11:15:27;353.80;;;165.90;;
3074;SDS011;1548;51.716;8.748;2022-11-11T11:20:30;297.00;;;145.00;;
3074;SDS011;1548;51.716;8.748;2022-11-11T11:22:56;343.13;;;165.63;;
3074;SDS011;1548;51.716;8.748;2022-11-11T11:25:24;340.80;;;159.97;;
3074;SDS011;1548;51.716;8.748;2022-11-11T11:27:53;334.63;;;170.93;;
3074;SDS011;1548;51.716;8.748;2022-11-11T11:30:36;329.30;;;168.07;;
3074;SDS011;1548;51.716;8.748;2022-11-11T11:33:03;317.30;;;165.13;;
3074;SDS011;1548;51.716;8.748;2022-11-11T11:38:07;347.13;;;169.47;;
3074;SDS011;1548;51.716;8.748;2022-11-11T11:40:49;336.90;;;161.23;;
3074;SDS011;1548;51.716;8.748;2022-11-11T11:46:00;321.03;;;159.73;;
3074;SDS011;1548;51.716;8.748;2022-11-11T11:51:16;356.97;;;164.43;;
3074;SDS011;1548;51.716;8.748;2022-11-11T11:53:52;358.63;;;175.97;;
3074;SDS011;1548;51.716;8.748;2022-11-11T12:07:03;351.87;;;164.37;;
3074;SDS011;1548;51.716;8.748;2022-11-11T12:09:44;354.57;;;167.70;;
3074;SDS011;1548;51.716;8.748;2022-11-11T12:12:42;360.80;;;164.37;;
3074;SDS011;1548;51.716;8.748;2022-11-11T12:15:27;372.50;;;171.60;;
3074;SDS011;1548;51.716;8.748;2022-11-11T12:21:05;340.60;;;162.77;;
3074;SDS011;1548;51.716;8.748;2022-11-11T12:43:53;338.87;;;168.80;;
3074;SDS011;1548;51.716;8.748;2022-11-11T12:46:39;325.30;;;161.00;;
3074;SDS011;1548;51.716;8.748;2022-11-11T12:51:52;325.03;;;165.30;;
3074;SDS011;1548;51.716;8.748;2022-11-11T12:54:26;307.17;;;164.73;;
3074;SDS011;1548;51.716;8.748;2022-11-11T13:00:08;330.13;;;162.43;;
3074;SDS011;1548;51.716;8.748;2022-11-11T13:08:26;337.27;;;166.83;;
3074;SDS011;1548;51.716;8.748;2022-11-11T13:16:12;361.57;;;165.33;;
3074;SDS011;1548;51.716;8.748;2022-11-11T13:21:17;356.97;;;165.53;;
3074;SDS011;1548;51.716;8.748;2022-11-11T13:23:47;349.00;;;160.50;;
3074;SDS011;1548;51.716;8.748;2022-11-11T13:26:46;359.13;;;162.73;;
3074;SDS011;1548;51.716;8.748;2022-11-11T13:29:16;366.70;;;162.67;;
3074;SDS011;1548;51.716;8.748;2022-11-11T13:32:02;377.10;;;169.20;;
3074;SDS011;1548;51.716;8.748;2022-11-11T13:34:33;352.80;;;160.07;;
3074;SDS011;1548;51.716;8.748;2022-11-11T13:36:59;359.90;;;166.60;;
3074;SDS011;1548;51.716;8.748;2022-11-11T13:39:32;348.53;;;161.10;;
3074;SDS011;1548;51.716;8.748;2022-11-11T13:42:03;346.17;;;169.00;;
3074;SDS011;1548;51.716;8.748;2022-11-11T13:44:31;331.47;;;165.13;;
3074;SDS011;1548;51.716;8.748;2022-11-11T13:47:03;340.83;;;164.10;;
3074;SDS011;1548;51.716;8.748;2022-11-11T13:49:35;312.93;;;164.10;;
3074;SDS011;1548;51.716;8.748;2022-11-11T13:52:19;336.20;;;161.10;;
3074;SDS011;1548;51.716;8.748;2022-11-11T13:55:00;289.10;;;140.57;;
3074;SDS011;1548;51.716;8.748;2022-11-11T13:57:30;328.00;;;165.27;;
3074;SDS011;1548;51.716;8.748;2022-11-11T14:02:27;329.83;;;162.13;;
3074;SDS011;1548;51.716;8.748;2022-11-11T14:10:08;316.43;;;160.90;;
3074;SDS011;1548;51.716;8.748;2022-11-11T14:12:36;354.50;;;163.97;;
3074;SDS011;1548;51.716;8.748;2022-11-11T14:15:03;362.90;;;162.90;;
3074;SDS011;1548;51.716;8.748;2022-11-11T14:17:32;316.93;;;161.93;;
3074;SDS011;1548;51.716;8.748;2022-11-11T14:20:25;317.33;;;160.57;;
3074;SDS011;1548;51.716;8.748;2022-11-11T14:23:15;301.00;;;138.77;;
3074;SDS011;1548;51.716;8.748;2022-11-11T14:28:30;284.40;;;130.10;;
3074;SDS011;1548;51.716;8.748;2022-11-11T14:30:59;347.20;;;160.20;;
3074;SDS011;1548;51.716;8.748;2022-11-11T14:33:47;349.33;;;160.60;;
3074;SDS011;1548;51.716;8.748;2022-11-11T14:41:47;310.40;;;163.57;;
3074;SDS011;1548;51.716;8.748;2022-11-11T14:57:57;335.83;;;163.30;;
3074;SDS011;1548;51.716;8.748;2022-11-11T15:00:43;334.83;;;162.07;;
3074;SDS011;1548;51.716;8.748;2022-11-11T15:11:48;347.90;;;162.87;;
3074;SDS011;1548;51.716;8.748;2022-11-11T15:27:30;305.37;;;158.97;;
3074;SDS011;1548;51.716;8.748;2022-11-11T15:30:16;257.87;;;140.23;;
3074;SDS011;1548;51.716;8.748;2022-11-11T15:35:24;312.43;;;162.57;;
3074;SDS011;1548;51.716;8.748;2022-11-11T15:37:55;311.23;;;162.07;;
3074;SDS011;1548;51.716;8.748;2022-11-11T15:40:24;321.43;;;159.70;;
3074;SDS011;1548;51.716;8.748;2022-11-11T15:43:11;309.07;;;159.30;;
3074;SDS011;1548;51.716;8.748;2022-11-11T15:45:39;310.90;;;164.23;;
3074;SDS011;1548;51.716;8.748;2022-11-11T15:48:11;307.10;;;162.43;;
3074;SDS011;1548;51.716;8.748;2022-11-11T15:50:40;283.53;;;162.70;;
3074;SDS011;1548;51.716;8.748;2022-11-11T15:53:09;284.93;;;161.00;;
3074;SDS011;1548;51.716;8.748;2022-11-11T15:55:36;299.40;;;161.23;;
3074;SDS011;1548;51.716;8.748;2022-11-11T15:58:16;295.77;;;156.77;;
3074;SDS011;1548;51.716;8.748;2022-11-11T16:00:49;318.97;;;163.03;;
3074;SDS011;1548;51.716;8.748;2022-11-11T16:03:19;261.30;;;137.60;;
3074;SDS011;1548;51.716;8.748;2022-11-11T16:05:47;296.17;;;157.10;;
3074;SDS011;1548;51.716;8.748;2022-11-11T16:08:17;288.03;;;157.20;;
3074;SDS011;1548;51.716;8.748;2022-11-11T16:10:44;283.13;;;139.37;;
3074;SDS011;1548;51.716;8.748;2022-11-11T16:13:20;322.30;;;160.47;;
3074;SDS011;1548;51.716;8.748;2022-11-11T16:16:05;281.10;;;134.60;;
3074;SDS011;1548;51.716;8.748;2022-11-11T16:18:43;320.40;;;161.53;;
3074;SDS011;1548;51.716;8.748;2022-11-11T16:21:35;273.37;;;134.57;;
3074;SDS011;1548;51.716;8.748;2022-11-11T16:24:01;324.50;;;161.30;;
3074;SDS011;1548;51.716;8.748;2022-11-11T16:26:27;282.37;;;152.03;;
3074;SDS011;1548;51.716;8.748;2022-11-11T16:28:57;271.83;;;135.17;;
3074;SDS011;1548;51.716;8.748;2022-11-11T16:39:26;267.57;;;143.97;;
3074;SDS011;1548;51.716;8.748;2022-11-11T16:41:56;282.60;;;146.37;;
3074;SDS011;1548;51.716;8.748;2022-11-11T16:50:11;285.47;;;142.07;;
3074;SDS011;1548;51.716;8.748;2022-11-11T16:55:24;254.33;;;143.30;;
3074;SDS011;1548;51.716;8.748;2022-11-11T16:58:12;254.90;;;141.97;;
3074;SDS011;1548;51.716;8.748;2022-11-11T17:00:40;273.20;;;142.77;;
3074;SDS011;1548;51.716;8.748;2022-11-11T17:03:11;306.70;;;144.30;;
3074;SDS011;1548;51.716;8.748;2022-11-11T17:11:07;299.23;;;145.37;;
3074;SDS011;1548;51.716;8.748;2022-11-11T17:13:34;299.97;;;145.73;;
3074;SDS011;1548;51.716;8.748;2022-11-11T17:16:01;272.20;;;140.50;;
3074;SDS011;1548;51.716;8.748;2022-11-11T17:18:32;295.90;;;143.33;;
3074;SDS011;1548;51.716;8.748;2022-11-11T17:21:01;299.47;;;143.70;;